Flight Track Log - Related Links

Times and Time Zones

All times are in EDT time to prevent confusion due to time zone crossing. See the MTN8305 flight status page for this flight to view local times or setup timezone preferences in your user account.

Time Position Orientation Groundspeed Altitude Reporting Facility
EDT Latitude Longitude Course Direction KTS MPH feet Rate Location/Type
Tue 04:08:32 AM 40.7000 -74.1667 323° Northwest 83 96 500  Level New York TRACON
Tue 04:09:26 AM 40.7167 -74.1833 323° Northwest 112 129 1,100 730 Climbing New York TRACON
Tue 04:10:27 AM 40.7000 -74.2167 237° Southwest 122 140 1,900 843 Climbing New York TRACON
Tue 04:11:27 AM 40.7000 -74.2667 270° West 123 142 2,800 800 Climbing New York TRACON
Tue 04:12:27 AM 40.6833 -74.3167 246° West 125 144 3,500 600 Climbing New York TRACON
Tue 04:13:27 AM 40.6833 -74.3667 270° West 133 153 4,000 263 Climbing New York TRACON
Tue 04:14:21 AM 40.6667 -74.4000 237° Southwest 156 180 4,000  Level New York TRACON
Tue 04:15:15 AM 40.6667 -74.4667 270° West 159 183 4,000  Level New York TRACON
Tue 04:16:15 AM 40.6500 -74.5167 246° West 161 185 4,000  Level New York TRACON
Tue 04:17:15 AM 40.6500 -74.5667 270° West 162 186 4,000  Level New York TRACON
Tue 04:18:15 AM 40.6333 -74.6333 252° West 162 186 4,000  Level New York TRACON
Tue 04:20:00 AM 40.5891 -74.6998 229° Southwest  Level FlightAware Approximate
Tue 04:27:00 AM 40.5497 -75.0526 261° West  Level FlightAware Approximate
Tue 04:27:38 AM 40.5500 -75.1833 212° Southwest 160 184 4,000  Level Philadelphia TRACON
Tue 04:28:00 AM 40.5435 -75.1024 261° West  Level FlightAware Approximate
Tue 04:28:50 AM 40.5500 -75.2500 270° West 163 188 3,900  Level Philadelphia TRACON
Tue 04:29:00 AM 40.5372 -75.1523 261° West  Level FlightAware Approximate
Tue 04:29:50 AM 40.5167 -75.2833 217° Southwest 178 205 4,000  Level Philadelphia TRACON
Tue 04:30:00 AM 40.5057 -75.1883 218° Southwest  Level Estimated
Tue 04:30:50 AM 40.4667 -75.3167 207° Southwest 174 200 4,000  Level Philadelphia TRACON
Tue 04:31:00 AM 40.4702 -75.2174 212° Southwest  Level FlightAware Approximate
Tue 04:31:51 AM 40.4167 -75.3333 194° South 176 203 4,000  Level Philadelphia TRACON
Tue 04:32:00 AM 40.4348 -75.2464 212° Southwest  Level FlightAware Approximate
Tue 04:32:51 AM 40.3833 -75.3667 217° Southwest 171 197 4,000  Level Philadelphia TRACON
Tue 04:33:51 AM 40.3333 -75.4000 207° Southwest 168 193 4,000  Level Philadelphia TRACON
Tue 04:34:51 AM 40.3000 -75.4167 201° Southwest 168 193 4,000  Level Philadelphia TRACON
Tue 04:35:51 AM 40.2500 -75.4500 207° Southwest 168 193 4,000  Level Philadelphia TRACON
Tue 04:36:51 AM 40.2167 -75.4833 217° Southwest 167 192 4,000  Level Philadelphia TRACON
Tue 04:37:51 AM 40.1667 -75.5000 194° South 167 192 4,000  Level Philadelphia TRACON
Tue 04:38:51 AM 40.1333 -75.5333 217° Southwest 167 192 4,000  Level Philadelphia TRACON
Tue 04:39:51 AM 40.0833 -75.5667 207° Southwest 166 191 4,000  Level Philadelphia TRACON
Tue 04:40:51 AM 40.0500 -75.5833 201° Southwest 167 192 4,000  Level Philadelphia TRACON
Tue 04:41:51 AM 40.0000 -75.6167 207° Southwest 169 194 4,000  Level Philadelphia TRACON
Tue 04:42:51 AM 39.9667 -75.6333 201° Southwest 165 190 4,000  Level Philadelphia TRACON
Tue 04:43:51 AM 39.9333 -75.6667 217° Southwest 164 189 4,000  Level Philadelphia TRACON
Tue 04:44:51 AM 39.9000 -75.7167 229° Southwest 157 181 4,000  Level Philadelphia TRACON
Tue 04:45:51 AM 39.8667 -75.7667 229° Southwest 159 183 4,000  Level Philadelphia TRACON
Tue 04:46:51 AM 39.8500 -75.8000 237° Southwest 160 184 4,000  Level Philadelphia TRACON
Tue 04:47:51 AM 39.8167 -75.8500 229° Southwest 159 183 4,000  Level Philadelphia TRACON
Tue 04:49:41 AM 39.7833 -75.9333 243° Southwest 165 190 4,000  Level Potomac TRACON
Tue 04:50:41 AM 39.7500 -75.9833 229° Southwest 159 183 4,000  Level Potomac TRACON
Tue 04:51:41 AM 39.7333 -76.0333 247° West 159 183 4,000  Level Potomac TRACON
Tue 04:52:41 AM 39.7000 -76.0833 229° Southwest 161 185 4,000  Level Potomac TRACON
Tue 04:53:41 AM 39.6667 -76.1167 218° Southwest 160 184 4,000  Level Potomac TRACON
Tue 04:54:41 AM 39.6333 -76.1500 218° Southwest 162 186 4,000  Level Potomac TRACON
Tue 04:55:41 AM 39.6000 -76.2000 229° Southwest 162 186 4,000  Level Potomac TRACON
Tue 04:56:41 AM 39.5667 -76.2333 218° Southwest 161 185 4,000  Level Potomac TRACON
Tue 04:57:41 AM 39.5333 -76.2667 218° Southwest 162 186 4,000  Level Potomac TRACON
Tue 04:58:41 AM 39.5000 -76.3000 218° Southwest 163 188 4,000  Level Potomac TRACON
Tue 04:59:41 AM 39.4667 -76.3500 229° Southwest 162 186 4,000  Level Potomac TRACON
Tue 05:00:47 AM 39.4333 -76.3833 218° Southwest 162 186 4,000  Level Potomac TRACON
Tue 05:01:47 AM 39.4000 -76.4333 229° Southwest 162 186 4,000 -105 Level Potomac TRACON
Tue 05:02:41 AM 39.3667 -76.4667 218° Southwest 171 197 3,800 -211 Descending Potomac TRACON
Tue 05:03:41 AM 39.3167 -76.5000 207° Southwest 174 200 3,600 -211 Descending Potomac TRACON
Tue 05:04:35 AM 39.2833 -76.5333 218° Southwest 176 203 3,400 -263 Descending Potomac TRACON
Tue 05:05:35 AM 39.2500 -76.5667 218° Southwest 177 204 3,100 -368 Descending Potomac TRACON
Tue 05:06:29 AM 39.2000 -76.6000 207° Southwest 180 207 2,700 -579 Descending Potomac TRACON
Tue 05:07:29 AM 39.1667 -76.6167 201° Southwest 188 216 2,000 -900 Descending Potomac TRACON
Tue 05:08:29 AM 39.1500 -76.6500 237° Southwest 124 143 900 -1,100 Descending Potomac TRACON
Tue 05:10:00 AM 39.1667 -76.6667 270° West  Level FlightAware Approximate
Tue 05:17:00 AM 39.1754 -76.6683 270° West  Level Estimated
Tue 05:18:00 AM 39.1754 -76.6683 270° West  Level Estimated
Tue 05:19:00 AM 39.1754 -76.6683 270° West  Level Estimated
Tue 05:20:00 AM 39.1754 -76.6683 270° West  Level Estimated
Tue 05:21:00 AM 39.1754 -76.6683 270° West  Level Estimated
Tue 05:22:00 AM 39.1754 -76.6683 270° West  Level Estimated
Tue 05:23:00 AM 39.1754 -76.6683 270° West  Level Estimated
Tue 05:24:00 AM 39.1754 -76.6683 270° West  Level Estimated
Tue 05:25:00 AM 39.1754 -76.6683 270° West  Level Estimated

Login

Don't have an account? Register now (free) for customized features, flight alerts, and more!